sensor_id;sensor_type;location;lat;lon;timestamp;P1;durP1;ratioP1;P2;durP2;ratioP2
22780;SDS011;11557;50.884;4.322;2023-02-26T00:01:18;15.27;;;4.28;;
22780;SDS011;11557;50.884;4.322;2023-02-26T00:03:49;17.90;;;4.32;;
22780;SDS011;11557;50.884;4.322;2023-02-26T00:06:16;15.57;;;4.22;;
22780;SDS011;11557;50.884;4.322;2023-02-26T00:08:42;13.75;;;4.20;;
22780;SDS011;11557;50.884;4.322;2023-02-26T00:11:08;14.80;;;4.07;;
22780;SDS011;11557;50.884;4.322;2023-02-26T00:13:35;14.85;;;4.32;;
22780;SDS011;11557;50.884;4.322;2023-02-26T00:16:02;13.65;;;4.30;;
22780;SDS011;11557;50.884;4.322;2023-02-26T00:18:37;11.25;;;3.72;;
22780;SDS011;11557;50.884;4.322;2023-02-26T00:21:03;11.13;;;3.97;;
22780;SDS011;11557;50.884;4.322;2023-02-26T00:23:29;11.13;;;3.78;;
22780;SDS011;11557;50.884;4.322;2023-02-26T00:25:56;10.73;;;4.10;;
22780;SDS011;11557;50.884;4.322;2023-02-26T00:28:22;17.55;;;4.53;;
22780;SDS011;11557;50.884;4.322;2023-02-26T00:30:48;15.20;;;5.07;;
22780;SDS011;11557;50.884;4.322;2023-02-26T00:33:14;16.45;;;4.15;;
22780;SDS011;11557;50.884;4.322;2023-02-26T00:35:40;14.38;;;3.67;;
22780;SDS011;11557;50.884;4.322;2023-02-26T00:38:10;12.02;;;4.05;;
22780;SDS011;11557;50.884;4.322;2023-02-26T00:43:08;11.07;;;4.50;;
22780;SDS011;11557;50.884;4.322;2023-02-26T00:51:15;18.10;;;3.85;;
22780;SDS011;11557;50.884;4.322;2023-02-26T00:53:52;11.32;;;4.45;;
22780;SDS011;11557;50.884;4.322;2023-02-26T00:56:33;14.43;;;3.97;;
22780;SDS011;11557;50.884;4.322;2023-02-26T00:58:59;15.45;;;4.57;;
22780;SDS011;11557;50.884;4.322;2023-02-26T01:01:25;13.38;;;4.13;;
22780;SDS011;11557;50.884;4.322;2023-02-26T01:03:50;12.82;;;3.50;;
22780;SDS011;11557;50.884;4.322;2023-02-26T01:06:18;14.63;;;4.00;;
22780;SDS011;11557;50.884;4.322;2023-02-26T01:08:47;13.07;;;3.97;;
22780;SDS011;11557;50.884;4.322;2023-02-26T01:11:29;13.23;;;3.45;;
22780;SDS011;11557;50.884;4.322;2023-02-26T01:13:55;15.38;;;4.13;;
22780;SDS011;11557;50.884;4.322;2023-02-26T01:16:24;11.30;;;3.92;;
22780;SDS011;11557;50.884;4.322;2023-02-26T01:19:04;13.43;;;4.30;;
22780;SDS011;11557;50.884;4.322;2023-02-26T01:21:40;11.23;;;3.97;;
22780;SDS011;11557;50.884;4.322;2023-02-26T01:24:15;15.95;;;4.35;;
22780;SDS011;11557;50.884;4.322;2023-02-26T01:26:44;14.45;;;3.72;;
22780;SDS011;11557;50.884;4.322;2023-02-26T01:29:11;10.00;;;3.80;;
22780;SDS011;11557;50.884;4.322;2023-02-26T01:31:53;10.38;;;4.05;;
22780;SDS011;11557;50.884;4.322;2023-02-26T01:37:12;13.50;;;3.53;;
22780;SDS011;11557;50.884;4.322;2023-02-26T01:39:50;9.98;;;3.70;;
22780;SDS011;11557;50.884;4.322;2023-02-26T01:42:26;11.88;;;3.95;;
22780;SDS011;11557;50.884;4.322;2023-02-26T01:45:10;12.85;;;3.50;;
22780;SDS011;11557;50.884;4.322;2023-02-26T01:47:44;9.55;;;3.03;;
22780;SDS011;11557;50.884;4.322;2023-02-26T01:50:18;16.40;;;4.03;;
22780;SDS011;11557;50.884;4.322;2023-02-26T01:53:26;13.65;;;3.17;;
22780;SDS011;11557;50.884;4.322;2023-02-26T01:55:57;11.65;;;3.25;;
22780;SDS011;11557;50.884;4.322;2023-02-26T01:58:29;12.55;;;3.80;;
22780;SDS011;11557;50.884;4.322;2023-02-26T02:00:58;11.10;;;3.55;;
22780;SDS011;11557;50.884;4.322;2023-02-26T02:03:25;12.68;;;3.42;;
22780;SDS011;11557;50.884;4.322;2023-02-26T02:05:54;13.15;;;3.25;;
22780;SDS011;11557;50.884;4.322;2023-02-26T02:08:24;13.02;;;3.53;;
22780;SDS011;11557;50.884;4.322;2023-02-26T02:10:50;10.50;;;3.13;;
22780;SDS011;11557;50.884;4.322;2023-02-26T02:16:15;14.77;;;3.33;;
22780;SDS011;11557;50.884;4.322;2023-02-26T02:32:09;13.55;;;3.55;;
22780;SDS011;11557;50.884;4.322;2023-02-26T02:37:29;11.23;;;2.80;;
22780;SDS011;11557;50.884;4.322;2023-02-26T02:40:18;14.57;;;3.25;;
22780;SDS011;11557;50.884;4.322;2023-02-26T02:45:30;14.30;;;3.22;;
22780;SDS011;11557;50.884;4.322;2023-02-26T02:47:58;7.72;;;2.63;;
22780;SDS011;11557;50.884;4.322;2023-02-26T02:50:40;9.55;;;3.53;;
22780;SDS011;11557;50.884;4.322;2023-02-26T02:53:13;8.57;;;2.83;;
22780;SDS011;11557;50.884;4.322;2023-02-26T02:55:57;13.20;;;2.90;;
22780;SDS011;11557;50.884;4.322;2023-02-26T02:58:29;13.73;;;3.00;;
22780;SDS011;11557;50.884;4.322;2023-02-26T03:01:00;10.63;;;3.03;;
22780;SDS011;11557;50.884;4.322;2023-02-26T03:06:31;9.40;;;2.15;;
22780;SDS011;11557;50.884;4.322;2023-02-26T03:08:57;8.82;;;2.45;;
22780;SDS011;11557;50.884;4.322;2023-02-26T03:11:25;6.78;;;2.20;;
22780;SDS011;11557;50.884;4.322;2023-02-26T03:13:51;8.38;;;2.20;;
22780;SDS011;11557;50.884;4.322;2023-02-26T03:19:20;10.85;;;2.55;;
22780;SDS011;11557;50.884;4.322;2023-02-26T03:21:55;8.65;;;2.40;;
22780;SDS011;11557;50.884;4.322;2023-02-26T03:24:54;6.15;;;2.33;;
22780;SDS011;11557;50.884;4.322;2023-02-26T03:30:19;7.07;;;2.17;;
22780;SDS011;11557;50.884;4.322;2023-02-26T03:39:00;9.20;;;2.78;;
22780;SDS011;11557;50.884;4.322;2023-02-26T03:41:41;6.78;;;2.10;;
22780;SDS011;11557;50.884;4.322;2023-02-26T03:44:18;4.80;;;2.30;;
22780;SDS011;11557;50.884;4.322;2023-02-26T03:46:50;7.75;;;2.42;;
22780;SDS011;11557;50.884;4.322;2023-02-26T03:49:24;9.75;;;2.63;;
22780;SDS011;11557;50.884;4.322;2023-02-26T03:51:56;6.45;;;2.25;;
22780;SDS011;11557;50.884;4.322;2023-02-26T03:54:28;7.63;;;2.50;;
22780;SDS011;11557;50.884;4.322;2023-02-26T03:56:57;12.27;;;3.75;;
22780;SDS011;11557;50.884;4.322;2023-02-26T03:59:23;9.23;;;2.33;;
22780;SDS011;11557;50.884;4.322;2023-02-26T04:07:09;11.13;;;2.80;;
22780;SDS011;11557;50.884;4.322;2023-02-26T04:09:37;12.30;;;2.90;;
22780;SDS011;11557;50.884;4.322;2023-02-26T04:12:09;17.10;;;2.42;;
22780;SDS011;11557;50.884;4.322;2023-02-26T04:14:35;9.52;;;2.42;;
22780;SDS011;11557;50.884;4.322;2023-02-26T04:17:01;9.25;;;2.60;;
22780;SDS011;11557;50.884;4.322;2023-02-26T04:19:27;6.07;;;2.50;;
22780;SDS011;11557;50.884;4.322;2023-02-26T04:21:53;6.38;;;2.15;;
22780;SDS011;11557;50.884;4.322;2023-02-26T04:24:19;8.90;;;2.58;;
22780;SDS011;11557;50.884;4.322;2023-02-26T04:26:46;13.10;;;2.22;;
22780;SDS011;11557;50.884;4.322;2023-02-26T04:29:11;14.45;;;2.40;;
22780;SDS011;11557;50.884;4.322;2023-02-26T04:31:37;9.95;;;2.10;;
22780;SDS011;11557;50.884;4.322;2023-02-26T04:34:03;7.38;;;3.03;;
22780;SDS011;11557;50.884;4.322;2023-02-26T04:36:28;17.02;;;2.60;;
22780;SDS011;11557;50.884;4.322;2023-02-26T04:38:54;5.53;;;2.00;;
22780;SDS011;11557;50.884;4.322;2023-02-26T04:41:20;7.60;;;2.13;;
22780;SDS011;11557;50.884;4.322;2023-02-26T04:43:46;7.07;;;2.20;;
22780;SDS011;11557;50.884;4.322;2023-02-26T04:46:11;6.82;;;2.20;;
22780;SDS011;11557;50.884;4.322;2023-02-26T04:48:37;9.57;;;2.35;;
22780;SDS011;11557;50.884;4.322;2023-02-26T04:51:03;11.50;;;2.17;;
22780;SDS011;11557;50.884;4.322;2023-02-26T04:53:28;5.57;;;2.17;;
22780;SDS011;11557;50.884;4.322;2023-02-26T04:55:54;11.70;;;1.98;;
22780;SDS011;11557;50.884;4.322;2023-02-26T04:58:20;8.30;;;2.10;;
22780;SDS011;11557;50.884;4.322;2023-02-26T05:00:49;8.52;;;2.05;;
22780;SDS011;11557;50.884;4.322;2023-02-26T05:03:15;7.63;;;2.15;;
22780;SDS011;11557;50.884;4.322;2023-02-26T05:05:41;9.07;;;2.22;;
22780;SDS011;11557;50.884;4.322;2023-02-26T05:08:07;4.68;;;2.13;;
22780;SDS011;11557;50.884;4.322;2023-02-26T05:10:33;8.70;;;2.05;;
22780;SDS011;11557;50.884;4.322;2023-02-26T05:12:59;8.57;;;2.05;;
22780;SDS011;11557;50.884;4.322;2023-02-26T05:15:24;8.65;;;2.85;;
22780;SDS011;11557;50.884;4.322;2023-02-26T05:17:50;11.25;;;2.50;;
22780;SDS011;11557;50.884;4.322;2023-02-26T05:20:16;8.82;;;2.55;;
22780;SDS011;11557;50.884;4.322;2023-02-26T05:22:42;6.53;;;2.00;;
22780;SDS011;11557;50.884;4.322;2023-02-26T05:25:08;9.25;;;1.80;;
22780;SDS011;11557;50.884;4.322;2023-02-26T05:27:36;9.52;;;2.28;;
22780;SDS011;11557;50.884;4.322;2023-02-26T05:30:04;9.40;;;2.10;;
22780;SDS011;11557;50.884;4.322;2023-02-26T05:32:30;6.53;;;2.30;;
22780;SDS011;11557;50.884;4.322;2023-02-26T05:34:56;10.23;;;2.50;;
22780;SDS011;11557;50.884;4.322;2023-02-26T05:37:21;11.65;;;2.40;;
22780;SDS011;11557;50.884;4.322;2023-02-26T05:39:47;6.07;;;2.10;;
22780;SDS011;11557;50.884;4.322;2023-02-26T05:42:13;10.18;;;2.47;;
22780;SDS011;11557;50.884;4.322;2023-02-26T05:44:39;12.77;;;1.92;;
22780;SDS011;11557;50.884;4.322;2023-02-26T05:47:05;11.88;;;2.30;;
22780;SDS011;11557;50.884;4.322;2023-02-26T05:49:31;11.95;;;1.95;;
22780;SDS011;11557;50.884;4.322;2023-02-26T05:51:56;7.80;;;2.28;;
22780;SDS011;11557;50.884;4.322;2023-02-26T05:54:22;11.05;;;1.90;;
22780;SDS011;11557;50.884;4.322;2023-02-26T05:56:48;8.77;;;1.70;;
22780;SDS011;11557;50.884;4.322;2023-02-26T05:59:14;8.75;;;2.10;;
22780;SDS011;11557;50.884;4.322;2023-02-26T06:01:40;7.50;;;1.98;;
22780;SDS011;11557;50.884;4.322;2023-02-26T06:04:06;6.75;;;2.30;;
22780;SDS011;11557;50.884;4.322;2023-02-26T06:06:32;9.70;;;2.17;;
22780;SDS011;11557;50.884;4.322;2023-02-26T06:08:58;9.77;;;1.63;;
22780;SDS011;11557;50.884;4.322;2023-02-26T06:11:26;6.22;;;1.90;;
22780;SDS011;11557;50.884;4.322;2023-02-26T06:13:55;8.75;;;1.90;;
22780;SDS011;11557;50.884;4.322;2023-02-26T06:16:21;7.57;;;2.08;;
22780;SDS011;11557;50.884;4.322;2023-02-26T06:18:47;9.32;;;1.90;;
22780;SDS011;11557;50.884;4.322;2023-02-26T06:21:14;7.28;;;1.58;;
22780;SDS011;11557;50.884;4.322;2023-02-26T06:23:40;8.13;;;2.00;;
22780;SDS011;11557;50.884;4.322;2023-02-26T06:26:06;9.27;;;2.33;;
22780;SDS011;11557;50.884;4.322;2023-02-26T06:28:32;16.48;;;2.13;;
22780;SDS011;11557;50.884;4.322;2023-02-26T06:30:58;7.57;;;2.10;;
22780;SDS011;11557;50.884;4.322;2023-02-26T06:33:23;6.47;;;2.25;;
22780;SDS011;11557;50.884;4.322;2023-02-26T06:35:49;8.27;;;2.08;;
22780;SDS011;11557;50.884;4.322;2023-02-26T06:38:15;9.80;;;2.10;;
22780;SDS011;11557;50.884;4.322;2023-02-26T06:40:43;7.63;;;1.75;;
22780;SDS011;11557;50.884;4.322;2023-02-26T06:43:09;4.45;;;2.05;;
22780;SDS011;11557;50.884;4.322;2023-02-26T06:45:35;5.53;;;1.65;;
22780;SDS011;11557;50.884;4.322;2023-02-26T06:48:01;11.82;;;1.95;;
22780;SDS011;11557;50.884;4.322;2023-02-26T06:50:27;8.25;;;1.48;;
22780;SDS011;11557;50.884;4.322;2023-02-26T06:52:53;10.25;;;1.70;;
22780;SDS011;11557;50.884;4.322;2023-02-26T06:55:18;6.82;;;1.65;;
22780;SDS011;11557;50.884;4.322;2023-02-26T06:57:46;6.93;;;1.60;;
22780;SDS011;11557;50.884;4.322;2023-02-26T07:00:12;8.75;;;2.13;;
22780;SDS011;11557;50.884;4.322;2023-02-26T07:02:38;8.18;;;1.70;;
22780;SDS011;11557;50.884;4.322;2023-02-26T07:05:04;4.35;;;1.50;;
22780;SDS011;11557;50.884;4.322;2023-02-26T07:07:30;8.93;;;2.00;;
22780;SDS011;11557;50.884;4.322;2023-02-26T07:09:55;9.70;;;2.00;;
22780;SDS011;11557;50.884;4.322;2023-02-26T07:12:21;5.85;;;2.22;;
22780;SDS011;11557;50.884;4.322;2023-02-26T07:14:47;6.90;;;1.65;;
22780;SDS011;11557;50.884;4.322;2023-02-26T07:17:12;4.65;;;1.65;;
22780;SDS011;11557;50.884;4.322;2023-02-26T07:19:48;6.80;;;1.60;;
22780;SDS011;11557;50.884;4.322;2023-02-26T07:22:15;7.03;;;1.80;;
22780;SDS011;11557;50.884;4.322;2023-02-26T07:24:41;9.60;;;1.58;;
22780;SDS011;11557;50.884;4.322;2023-02-26T07:27:07;4.85;;;1.80;;
22780;SDS011;11557;50.884;4.322;2023-02-26T07:29:34;8.57;;;1.58;;
22780;SDS011;11557;50.884;4.322;2023-02-26T07:32:00;8.27;;;1.50;;
22780;SDS011;11557;50.884;4.322;2023-02-26T07:34:26;4.38;;;1.33;;
22780;SDS011;11557;50.884;4.322;2023-02-26T07:36:52;8.27;;;1.77;;
22780;SDS011;11557;50.884;4.322;2023-02-26T07:39:17;4.88;;;1.52;;
22780;SDS011;11557;50.884;4.322;2023-02-26T07:41:43;4.78;;;1.42;;
22780;SDS011;11557;50.884;4.322;2023-02-26T07:44:08;9.40;;;1.60;;
22780;SDS011;11557;50.884;4.322;2023-02-26T07:46:34;4.53;;;1.60;;
22780;SDS011;11557;50.884;4.322;2023-02-26T07:49:00;5.15;;;1.40;;
22780;SDS011;11557;50.884;4.322;2023-02-26T07:51:26;6.18;;;1.27;;
22780;SDS011;11557;50.884;4.322;2023-02-26T07:53:52;9.68;;;1.70;;
22780;SDS011;11557;50.884;4.322;2023-02-26T07:56:17;7.03;;;1.50;;
22780;SDS011;11557;50.884;4.322;2023-02-26T07:58:43;4.80;;;1.55;;
22780;SDS011;11557;50.884;4.322;2023-02-26T08:01:09;9.50;;;1.77;;
22780;SDS011;11557;50.884;4.322;2023-02-26T08:03:34;7.03;;;1.70;;
22780;SDS011;11557;50.884;4.322;2023-02-26T08:06:00;6.47;;;1.42;;
22780;SDS011;11557;50.884;4.322;2023-02-26T08:08:27;6.35;;;1.98;;
22780;SDS011;11557;50.884;4.322;2023-02-26T08:10:53;7.32;;;1.48;;
22780;SDS011;11557;50.884;4.322;2023-02-26T08:13:18;6.32;;;1.90;;
22780;SDS011;11557;50.884;4.322;2023-02-26T08:15:44;7.72;;;1.70;;
22780;SDS011;11557;50.884;4.322;2023-02-26T08:18:12;4.65;;;1.60;;
22780;SDS011;11557;50.884;4.322;2023-02-26T08:20:37;5.60;;;1.17;;
22780;SDS011;11557;50.884;4.322;2023-02-26T08:23:03;5.85;;;1.60;;
22780;SDS011;11557;50.884;4.322;2023-02-26T08:25:29;7.95;;;1.60;;
22780;SDS011;11557;50.884;4.322;2023-02-26T08:27:55;9.23;;;1.50;;
22780;SDS011;11557;50.884;4.322;2023-02-26T08:30:22;3.67;;;1.10;;
22780;SDS011;11557;50.884;4.322;2023-02-26T08:32:48;7.15;;;1.20;;
22780;SDS011;11557;50.884;4.322;2023-02-26T08:35:14;4.90;;;1.42;;
22780;SDS011;11557;50.884;4.322;2023-02-26T08:37:40;6.78;;;1.20;;
22780;SDS011;11557;50.884;4.322;2023-02-26T08:40:08;7.68;;;1.30;;
22780;SDS011;11557;50.884;4.322;2023-02-26T08:42:34;6.30;;;1.65;;
22780;SDS011;11557;50.884;4.322;2023-02-26T08:45:00;7.93;;;1.48;;
22780;SDS011;11557;50.884;4.322;2023-02-26T08:47:26;10.48;;;1.60;;
22780;SDS011;11557;50.884;4.322;2023-02-26T08:49:52;6.50;;;1.67;;
22780;SDS011;11557;50.884;4.322;2023-02-26T08:52:18;7.07;;;1.42;;
22780;SDS011;11557;50.884;4.322;2023-02-26T08:54:44;6.22;;;1.10;;
22780;SDS011;11557;50.884;4.322;2023-02-26T08:57:10;4.65;;;1.38;;
22780;SDS011;11557;50.884;4.322;2023-02-26T08:59:36;7.15;;;1.50;;
22780;SDS011;11557;50.884;4.322;2023-02-26T09:02:02;10.50;;;1.60;;
22780;SDS011;11557;50.884;4.322;2023-02-26T09:04:28;2.95;;;1.35;;
22780;SDS011;11557;50.884;4.322;2023-02-26T09:06:53;11.15;;;1.75;;
22780;SDS011;11557;50.884;4.322;2023-02-26T09:09:19;4.55;;;1.40;;
22780;SDS011;11557;50.884;4.322;2023-02-26T09:11:45;2.55;;;1.08;;
22780;SDS011;11557;50.884;4.322;2023-02-26T09:14:11;8.25;;;1.45;;
22780;SDS011;11557;50.884;4.322;2023-02-26T09:16:36;4.85;;;1.23;;
22780;SDS011;11557;50.884;4.322;2023-02-26T09:19:03;4.95;;;1.23;;
22780;SDS011;11557;50.884;4.322;2023-02-26T09:21:30;5.70;;;1.60;;
22780;SDS011;11557;50.884;4.322;2023-02-26T09:23:56;5.22;;;1.00;;
22780;SDS011;11557;50.884;4.322;2023-02-26T09:26:21;3.63;;;0.90;;
22780;SDS011;11557;50.884;4.322;2023-02-26T09:28:47;4.25;;;1.60;;
22780;SDS011;11557;50.884;4.322;2023-02-26T09:31:13;5.65;;;1.40;;
22780;SDS011;11557;50.884;4.322;2023-02-26T09:33:38;4.13;;;1.25;;
22780;SDS011;11557;50.884;4.322;2023-02-26T09:36:05;4.50;;;1.33;;
22780;SDS011;11557;50.884;4.322;2023-02-26T09:38:31;3.67;;;2.30;;
22780;SDS011;11557;50.884;4.322;2023-02-26T09:43:39;3.80;;;1.08;;
22780;SDS011;11557;50.884;4.322;2023-02-26T09:49:14;2.58;;;0.90;;
22780;SDS011;11557;50.884;4.322;2023-02-26T09:52:03;2.67;;;1.05;;
22780;SDS011;11557;50.884;4.322;2023-02-26T09:55:13;5.45;;;0.98;;
22780;SDS011;11557;50.884;4.322;2023-02-26T09:57:58;7.32;;;3.13;;
22780;SDS011;11557;50.884;4.322;2023-02-26T10:00:42;7.43;;;2.88;;
22780;SDS011;11557;50.884;4.322;2023-02-26T10:08:49;7.30;;;0.90;;
22780;SDS011;11557;50.884;4.322;2023-02-26T10:11:35;1.02;;;0.77;;
22780;SDS011;11557;50.884;4.322;2023-02-26T10:14:14;3.60;;;0.88;;
22780;SDS011;11557;50.884;4.322;2023-02-26T10:16:42;3.95;;;0.95;;
22780;SDS011;11557;50.884;4.322;2023-02-26T10:19:18;3.60;;;0.85;;
22780;SDS011;11557;50.884;4.322;2023-02-26T10:24:39;2.85;;;1.10;;
22780;SDS011;11557;50.884;4.322;2023-02-26T10:27:11;5.68;;;1.10;;
22780;SDS011;11557;50.884;4.322;2023-02-26T10:29:59;3.20;;;0.88;;
22780;SDS011;11557;50.884;4.322;2023-02-26T10:35:12;3.38;;;0.70;;
22780;SDS011;11557;50.884;4.322;2023-02-26T10:40:18;3.42;;;0.82;;
22780;SDS011;11557;50.884;4.322;2023-02-26T10:45:35;3.30;;;0.70;;
22780;SDS011;11557;50.884;4.322;2023-02-26T10:48:25;3.80;;;1.08;;
22780;SDS011;11557;50.884;4.322;2023-02-26T10:51:05;3.22;;;0.80;;
22780;SDS011;11557;50.884;4.322;2023-02-26T10:53:37;3.10;;;1.02;;
22780;SDS011;11557;50.884;4.322;2023-02-26T10:56:36;2.38;;;1.08;;
22780;SDS011;11557;50.884;4.322;2023-02-26T10:58:56;3.00;;;1.00;;
22780;SDS011;11557;50.884;4.322;2023-02-26T11:01:25;5.35;;;1.05;;
22780;SDS011;11557;50.884;4.322;2023-02-26T11:04:00;2.00;;;0.88;;
22780;SDS011;11557;50.884;4.322;2023-02-26T11:06:34;3.13;;;0.85;;
22780;SDS011;11557;50.884;4.322;2023-02-26T11:09:06;3.28;;;0.95;;
22780;SDS011;11557;50.884;4.322;2023-02-26T11:11:53;3.45;;;1.00;;
22780;SDS011;11557;50.884;4.322;2023-02-26T11:14:21;2.38;;;0.80;;
22780;SDS011;11557;50.884;4.322;2023-02-26T11:16:54;2.95;;;0.85;;
22780;SDS011;11557;50.884;4.322;2023-02-26T11:19:26;1.60;;;0.80;;
22780;SDS011;11557;50.884;4.322;2023-02-26T11:21:55;5.00;;;1.13;;
22780;SDS011;11557;50.884;4.322;2023-02-26T11:24:29;1.95;;;0.88;;
22780;SDS011;11557;50.884;4.322;2023-02-26T11:27:06;1.65;;;0.60;;
22780;SDS011;11557;50.884;4.322;2023-02-26T11:29:37;4.32;;;1.08;;
22780;SDS011;11557;50.884;4.322;2023-02-26T11:32:06;2.97;;;0.93;;
22780;SDS011;11557;50.884;4.322;2023-02-26T11:34:43;4.25;;;1.20;;
22780;SDS011;11557;50.884;4.322;2023-02-26T11:37:12;2.97;;;1.30;;
22780;SDS011;11557;50.884;4.322;2023-02-26T11:42:13;4.05;;;1.05;;
22780;SDS011;11557;50.884;4.322;2023-02-26T11:44:43;2.42;;;0.90;;
22780;SDS011;11557;50.884;4.322;2023-02-26T11:50:01;4.80;;;1.33;;
22780;SDS011;11557;50.884;4.322;2023-02-26T11:52:35;2.17;;;0.93;;
22780;SDS011;11557;50.884;4.322;2023-02-26T11:57:44;4.03;;;1.50;;
22780;SDS011;11557;50.884;4.322;2023-02-26T12:00:17;2.42;;;0.95;;
22780;SDS011;11557;50.884;4.322;2023-02-26T12:02:47;5.78;;;2.47;;
22780;SDS011;11557;50.884;4.322;2023-02-26T12:05:14;3.85;;;1.73;;
22780;SDS011;11557;50.884;4.322;2023-02-26T12:07:42;3.08;;;0.90;;
22780;SDS011;11557;50.884;4.322;2023-02-26T12:10:17;3.25;;;0.95;;
22780;SDS011;11557;50.884;4.322;2023-02-26T12:15:27;2.90;;;1.05;;
22780;SDS011;11557;50.884;4.322;2023-02-26T12:20:54;3.78;;;1.10;;
22780;SDS011;11557;50.884;4.322;2023-02-26T12:23:32;3.47;;;1.00;;
22780;SDS011;11557;50.884;4.322;2023-02-26T12:34:32;3.95;;;1.25;;
22780;SDS011;11557;50.884;4.322;2023-02-26T12:42:48;2.20;;;0.95;;
22780;SDS011;11557;50.884;4.322;2023-02-26T12:47:58;5.43;;;1.23;;
22780;SDS011;11557;50.884;4.322;2023-02-26T12:56:44;3.28;;;1.13;;
22780;SDS011;11557;50.884;4.322;2023-02-26T12:59:25;3.88;;;0.90;;
22780;SDS011;11557;50.884;4.322;2023-02-26T13:11:14;2.67;;;1.10;;
22780;SDS011;11557;50.884;4.322;2023-02-26T13:14:06;1.27;;;0.70;;
22780;SDS011;11557;50.884;4.322;2023-02-26T13:19:38;2.83;;;1.10;;
22780;SDS011;11557;50.884;4.322;2023-02-26T13:22:21;3.22;;;1.08;;
22780;SDS011;11557;50.884;4.322;2023-02-26T13:25:00;2.65;;;1.00;;
22780;SDS011;11557;50.884;4.322;2023-02-26T13:27:32;4.82;;;1.35;;
22780;SDS011;11557;50.884;4.322;2023-02-26T13:30:13;5.68;;;1.08;;
22780;SDS011;11557;50.884;4.322;2023-02-26T13:32:52;2.60;;;0.93;;
22780;SDS011;11557;50.884;4.322;2023-02-26T13:35:21;2.47;;;1.20;;
22780;SDS011;11557;50.884;4.322;2023-02-26T13:38:02;5.85;;;0.88;;
22780;SDS011;11557;50.884;4.322;2023-02-26T13:43:21;2.55;;;1.00;;
22780;SDS011;11557;50.884;4.322;2023-02-26T13:51:38;4.60;;;1.25;;
22780;SDS011;11557;50.884;4.322;2023-02-26T13:54:07;4.93;;;1.40;;
22780;SDS011;11557;50.884;4.322;2023-02-26T13:59:22;5.05;;;1.20;;
22780;SDS011;11557;50.884;4.322;2023-02-26T14:02:00;3.17;;;0.98;;
22780;SDS011;11557;50.884;4.322;2023-02-26T14:04:29;3.58;;;0.85;;
22780;SDS011;11557;50.884;4.322;2023-02-26T14:06:57;1.38;;;0.77;;
22780;SDS011;11557;50.884;4.322;2023-02-26T14:09:34;1.90;;;0.90;;
22780;SDS011;11557;50.884;4.322;2023-02-26T14:12:32;1.77;;;0.85;;
22780;SDS011;11557;50.884;4.322;2023-02-26T14:17:38;1.63;;;0.88;;
22780;SDS011;11557;50.884;4.322;2023-02-26T14:23:09;2.95;;;0.82;;
22780;SDS011;11557;50.884;4.322;2023-02-26T14:28:18;2.80;;;1.20;;
22780;SDS011;11557;50.884;4.322;2023-02-26T14:31:45;4.13;;;0.80;;
22780;SDS011;11557;50.884;4.322;2023-02-26T14:33:46;1.83;;;0.82;;
22780;SDS011;11557;50.884;4.322;2023-02-26T14:36:45;1.77;;;0.98;;
22780;SDS011;11557;50.884;4.322;2023-02-26T14:39:23;1.67;;;0.77;;
22780;SDS011;11557;50.884;4.322;2023-02-26T14:41:59;2.97;;;0.85;;
22780;SDS011;11557;50.884;4.322;2023-02-26T14:44:36;3.08;;;0.82;;
22780;SDS011;11557;50.884;4.322;2023-02-26T14:47:06;1.42;;;0.82;;
22780;SDS011;11557;50.884;4.322;2023-02-26T14:49:34;5.80;;;0.95;;
22780;SDS011;11557;50.884;4.322;2023-02-26T15:08:46;3.17;;;1.10;;
22780;SDS011;11557;50.884;4.322;2023-02-26T15:16:21;2.30;;;1.10;;
22780;SDS011;11557;50.884;4.322;2023-02-26T15:24:42;2.30;;;1.15;;
22780;SDS011;11557;50.884;4.322;2023-02-26T15:27:10;2.38;;;1.02;;
22780;SDS011;11557;50.884;4.322;2023-02-26T15:29:40;2.38;;;1.00;;
22780;SDS011;11557;50.884;4.322;2023-02-26T15:34:43;4.75;;;1.35;;
22780;SDS011;11557;50.884;4.322;2023-02-26T15:37:20;3.13;;;1.20;;
22780;SDS011;11557;50.884;4.322;2023-02-26T15:39:48;4.50;;;1.23;;
22780;SDS011;11557;50.884;4.322;2023-02-26T15:42:15;5.03;;;1.48;;
22780;SDS011;11557;50.884;4.322;2023-02-26T15:44:43;3.42;;;1.05;;
22780;SDS011;11557;50.884;4.322;2023-02-26T15:47:11;3.53;;;1.08;;
22780;SDS011;11557;50.884;4.322;2023-02-26T15:49:45;4.40;;;0.90;;
22780;SDS011;11557;50.884;4.322;2023-02-26T15:52:16;2.45;;;1.15;;
22780;SDS011;11557;50.884;4.322;2023-02-26T15:54:46;1.80;;;1.10;;
22780;SDS011;11557;50.884;4.322;2023-02-26T15:57:16;2.88;;;1.08;;
22780;SDS011;11557;50.884;4.322;2023-02-26T15:59:47;5.18;;;1.30;;
22780;SDS011;11557;50.884;4.322;2023-02-26T16:02:15;4.80;;;1.17;;
22780;SDS011;11557;50.884;4.322;2023-02-26T16:04:45;6.10;;;1.20;;
22780;SDS011;11557;50.884;4.322;2023-02-26T16:07:11;4.00;;;1.13;;
22780;SDS011;11557;50.884;4.322;2023-02-26T16:09:39;5.95;;;1.52;;
22780;SDS011;11557;50.884;4.322;2023-02-26T16:12:13;2.80;;;1.25;;
22780;SDS011;11557;50.884;4.322;2023-02-26T16:14:43;5.90;;;1.30;;
22780;SDS011;11557;50.884;4.322;2023-02-26T16:17:24;3.00;;;1.43;;
22780;SDS011;11557;50.884;4.322;2023-02-26T16:19:55;5.72;;;1.65;;
22780;SDS011;11557;50.884;4.322;2023-02-26T16:25:12;3.17;;;1.85;;
22780;SDS011;11557;50.884;4.322;2023-02-26T16:27:40;4.32;;;2.10;;
22780;SDS011;11557;50.884;4.322;2023-02-26T16:30:12;2.63;;;1.55;;
22780;SDS011;11557;50.884;4.322;2023-02-26T16:32:44;4.18;;;1.38;;
22780;SDS011;11557;50.884;4.322;2023-02-26T16:35:19;6.50;;;1.40;;
22780;SDS011;11557;50.884;4.322;2023-02-26T16:37:49;6.28;;;1.85;;
22780;SDS011;11557;50.884;4.322;2023-02-26T16:43:04;8.48;;;3.00;;
22780;SDS011;11557;50.884;4.322;2023-02-26T16:45:54;4.45;;;1.92;;
22780;SDS011;11557;50.884;4.322;2023-02-26T16:48:25;3.75;;;1.60;;
22780;SDS011;11557;50.884;4.322;2023-02-26T16:50:56;4.97;;;1.85;;
22780;SDS011;11557;50.884;4.322;2023-02-26T16:53:45;13.07;;;8.27;;
22780;SDS011;11557;50.884;4.322;2023-02-26T16:56:18;5.18;;;3.75;;
22780;SDS011;11557;50.884;4.322;2023-02-26T16:58:48;5.43;;;2.92;;
22780;SDS011;11557;50.884;4.322;2023-02-26T17:01:22;6.90;;;3.05;;
22780;SDS011;11557;50.884;4.322;2023-02-26T17:03:49;6.25;;;3.05;;
22780;SDS011;11557;50.884;4.322;2023-02-26T17:06:22;6.22;;;2.80;;
22780;SDS011;11557;50.884;4.322;2023-02-26T17:11:41;4.53;;;2.10;;
22780;SDS011;11557;50.884;4.322;2023-02-26T17:16:43;3.63;;;2.03;;
22780;SDS011;11557;50.884;4.322;2023-02-26T17:19:10;4.68;;;1.27;;
22780;SDS011;11557;50.884;4.322;2023-02-26T17:21:37;4.72;;;1.83;;
22780;SDS011;11557;50.884;4.322;2023-02-26T17:24:11;3.70;;;1.70;;
22780;SDS011;11557;50.884;4.322;2023-02-26T17:26:43;7.63;;;2.45;;
22780;SDS011;11557;50.884;4.322;2023-02-26T17:29:15;3.50;;;2.60;;
22780;SDS011;11557;50.884;4.322;2023-02-26T17:31:44;4.60;;;2.30;;
22780;SDS011;11557;50.884;4.322;2023-02-26T17:34:10;6.65;;;3.35;;
22780;SDS011;11557;50.884;4.322;2023-02-26T17:36:36;5.85;;;2.17;;
22780;SDS011;11557;50.884;4.322;2023-02-26T17:39:02;4.95;;;1.90;;
22780;SDS011;11557;50.884;4.322;2023-02-26T17:41:28;4.75;;;2.10;;
22780;SDS011;11557;50.884;4.322;2023-02-26T17:43:54;6.53;;;2.22;;
22780;SDS011;11557;50.884;4.322;2023-02-26T17:46:20;6.28;;;2.30;;
22780;SDS011;11557;50.884;4.322;2023-02-26T17:48:46;4.45;;;2.10;;
22780;SDS011;11557;50.884;4.322;2023-02-26T17:51:12;4.65;;;2.60;;
22780;SDS011;11557;50.884;4.322;2023-02-26T17:53:38;3.53;;;2.08;;
22780;SDS011;11557;50.884;4.322;2023-02-26T17:56:13;3.65;;;2.20;;
22780;SDS011;11557;50.884;4.322;2023-02-26T17:58:49;11.73;;;5.20;;
22780;SDS011;11557;50.884;4.322;2023-02-26T18:01:16;5.90;;;3.17;;
22780;SDS011;11557;50.884;4.322;2023-02-26T18:03:42;7.22;;;3.33;;
22780;SDS011;11557;50.884;4.322;2023-02-26T18:06:08;9.98;;;5.70;;
22780;SDS011;11557;50.884;4.322;2023-02-26T18:08:37;11.02;;;5.43;;